Time;durP1;ratioP1;P1;durP2;ratioP2;P2;SDS_P1;SDS_P2;PMS_P1;PMS_P2;Temp;Humidity;BMP_temperature;BMP_pressure;BME280_temperature;BME280_humidity;BME280_pressure;Samples;Min_cycle;Max_cycle;Signal;HPM_P1;HPM_P2
2023/01/14 00:01:12;;;;;;;22.50;13.53;;;;;;;9.59;67.74;94897.66;5111214;28;20225;-46
2023/01/14 00:03:41;;;;;;;20.37;13.97;;;;;;;9.59;67.69;94888.25;5110574;28;20185;-46
2023/01/14 00:06:08;;;;;;;17.00;12.90;;;;;;;9.60;67.86;94887.31;5111588;28;20192;-48
2023/01/14 00:08:35;;;;;;;22.30;14.00;;;;;;;9.61;67.88;94893.22;5110784;28;20200;-48
2023/01/14 00:11:04;;;;;;;16.80;12.30;;;;;;;9.59;67.75;94893.34;5110989;28;20517;-47
2023/01/14 00:13:33;;;;;;;18.47;13.43;;;;;;;9.62;67.66;94894.81;5110447;28;20232;-47
2023/01/14 00:16:01;;;;;;;19.40;13.33;;;;;;;9.63;67.62;94888.78;5110252;28;20185;-47
2023/01/14 00:18:28;;;;;;;19.23;13.40;;;;;;;9.64;67.66;94887.88;5110893;28;20200;-46
2023/01/14 00:21:01;;;;;;;17.43;12.30;;;;;;;9.65;67.48;94890.28;5110924;28;20192;-47
2023/01/14 00:23:29;;;;;;;19.53;13.93;;;;;;;9.65;67.55;94884.38;5110422;28;20189;-47
2023/01/14 00:26:03;;;;;;;20.97;13.07;;;;;;;9.67;67.45;94880.75;5110334;28;20250;-48
2023/01/14 00:28:29;;;;;;;19.33;13.07;;;;;;;9.67;67.78;94883.31;5090434;28;20258;-46
2023/01/14 00:31:08;;;;;;;16.53;12.53;;;;;;;9.67;67.58;94880.75;5097818;28;20185;-48
2023/01/14 00:33:36;;;;;;;18.93;13.40;;;;;;;9.65;67.64;94874.97;5110794;28;20192;-47
2023/01/14 00:36:06;;;;;;;19.97;13.03;;;;;;;9.66;67.88;94878.31;5110389;28;20193;-48
2023/01/14 00:38:33;;;;;;;19.17;13.37;;;;;;;9.65;67.80;94881.81;5109850;28;20197;-47
2023/01/14 00:41:02;;;;;;;18.87;13.63;;;;;;;9.64;67.63;94883.56;5110718;28;20242;-48
2023/01/14 00:43:29;;;;;;;17.70;13.10;;;;;;;9.64;67.78;94877.66;5110292;28;20280;-48
2023/01/14 00:45:56;;;;;;;20.37;14.07;;;;;;;9.63;67.81;94887.06;5110096;28;20232;-47
2023/01/14 00:48:22;;;;;;;21.43;15.00;;;;;;;9.63;68.13;94881.94;5109889;28;20204;-46
2023/01/14 00:50:49;;;;;;;19.23;14.40;;;;;;;9.63;67.88;94876.84;5110933;28;20201;-46
2023/01/14 00:53:17;;;;;;;21.30;13.70;;;;;;;9.65;67.84;94884.38;5112440;28;20250;-47
2023/01/14 00:55:44;;;;;;;21.10;14.23;;;;;;;9.46;67.63;94852.72;5112689;28;20181;-48
2023/01/14 00:58:11;;;;;;;20.37;14.07;;;;;;;9.62;67.66;94879.50;5110053;28;20181;-47
2023/01/14 01:00:38;;;;;;;21.90;13.83;;;;;;;9.63;67.94;94884.50;5109604;28;20234;-47
2023/01/14 01:03:05;;;;;;;18.97;13.43;;;;;;;9.63;67.83;94892.16;5109755;28;20204;-47
2023/01/14 01:05:34;;;;;;;21.50;14.43;;;;;;;9.65;67.96;94889.47;5109726;28;20185;-47
2023/01/14 01:08:01;;;;;;;23.03;15.13;;;;;;;9.62;68.11;94884.59;5109581;28;20238;-47
2023/01/14 01:10:29;;;;;;;20.97;14.77;;;;;;;9.65;68.21;94890.28;5109757;28;20196;-47
2023/01/14 01:12:56;;;;;;;21.10;14.60;;;;;;;9.64;68.13;94887.88;5110344;28;20216;-48
2023/01/14 01:15:23;;;;;;;20.37;14.63;;;;;;;9.62;68.10;94880.31;5109275;28;20558;-49
2023/01/14 01:17:50;;;;;;;21.50;14.53;;;;;;;9.60;67.95;94881.38;5110077;28;20193;-47
2023/01/14 01:20:17;;;;;;;24.00;15.93;;;;;;;9.62;68.03;94884.59;5109329;28;20182;-48
2023/01/14 01:22:43;;;;;;;22.50;15.73;;;;;;;9.59;67.89;94880.59;5110001;28;20197;-49
2023/01/14 01:25:10;;;;;;;24.03;15.77;;;;;;;9.58;67.98;94878.94;5108917;28;20696;-48
2023/01/14 01:27:38;;;;;;;20.77;14.53;;;;;;;9.59;68.00;94875.47;5109744;28;20200;-48
2023/01/14 01:30:06;;;;;;;23.53;16.27;;;;;;;9.57;67.94;94868.88;5108999;28;20334;-47
2023/01/14 01:32:33;;;;;;;26.37;16.03;;;;;;;9.45;68.22;94853.63;5109661;28;20228;-48
2023/01/14 01:35:00;;;;;;;25.37;16.33;;;;;;;9.54;67.97;94872.47;5109676;28;20185;-47
2023/01/14 01:37:27;;;;;;;25.40;16.80;;;;;;;9.51;68.14;94860.78;5109280;28;20235;-47
2023/01/14 01:39:54;;;;;;;28.13;17.67;;;;;;;9.49;67.98;94861.84;5109169;28;20646;-46
2023/01/14 01:42:23;;;;;;;24.70;16.73;;;;;;;9.47;68.14;94858.63;5109227;28;20586;-47
2023/01/14 01:45:19;;;;;;;25.07;16.50;;;;;;;9.43;68.33;94860.59;5109402;28;20207;-46
2023/01/14 01:47:47;;;;;;;27.00;17.97;;;;;;;9.40;68.19;94865.16;5109487;28;20291;-47
2023/01/14 01:50:13;;;;;;;27.03;16.77;;;;;;;9.36;68.17;94858.69;5108993;28;20575;-48
2023/01/14 01:52:40;;;;;;;26.73;16.77;;;;;;;9.33;68.22;94864.88;5109180;28;20224;-47
2023/01/14 01:55:12;;;;;;;31.10;18.50;;;;;;;9.31;68.39;94853.97;5109547;28;20204;-49
2023/01/14 01:57:39;;;;;;;27.47;16.70;;;;;;;9.27;68.39;94850.84;5109053;28;20193;-47
2023/01/14 02:00:09;;;;;;;23.97;17.13;;;;;;;9.25;68.54;94849.38;5109276;28;20181;-48
2023/01/14 02:02:36;;;;;;;26.43;16.80;;;;;;;9.01;68.41;94816.44;5108912;28;20240;-48
2023/01/14 02:05:03;;;;;;;27.73;18.20;;;;;;;9.17;68.56;94854.28;5109613;28;20181;-47
2023/01/14 02:07:30;;;;;;;30.17;18.40;;;;;;;9.01;68.47;94830.00;5109338;28;20215;-46
2023/01/14 02:10:01;;;;;;;28.30;18.57;;;;;;;8.93;68.66;94822.16;5109340;28;20198;-46
2023/01/14 02:12:38;;;;;;;26.93;17.80;;;;;;;9.10;68.45;94855.72;5098473;28;20239;-50
2023/01/14 02:15:25;;;;;;;25.90;16.00;;;;;;;9.09;68.56;94857.44;5109476;28;20188;-47
2023/01/14 02:18:04;;;;;;;28.67;18.03;;;;;;;9.09;68.57;94864.31;5108831;28;20172;-47
2023/01/14 02:20:37;;;;;;;27.10;17.13;;;;;;;9.07;68.71;94859.34;5109470;28;20181;-51
2023/01/14 02:23:30;;;;;;;27.97;17.07;;;;;;;9.06;68.62;94855.13;5109293;28;20193;-47
2023/01/14 02:26:21;;;;;;;28.57;17.70;;;;;;;9.09;68.70;94861.75;5109103;28;20189;-47
2023/01/14 02:29:07;;;;;;;29.27;18.00;;;;;;;9.06;68.58;94847.50;5107816;28;20188;-47
2023/01/14 02:31:41;;;;;;;24.17;16.93;;;;;;;9.01;68.61;94837.66;5108885;28;20196;-48
2023/01/14 02:34:18;;;;;;;23.73;17.37;;;;;;;9.07;68.71;94843.19;5108904;28;20189;-48
2023/01/14 02:36:52;;;;;;;27.30;17.50;;;;;;;9.08;68.64;94855.03;5109477;28;20188;-46
2023/01/14 02:39:29;;;;;;;22.70;15.73;;;;;;;9.08;68.45;94852.47;5112433;28;20192;-47
2023/01/14 02:44:57;;;;;;;22.97;15.50;;;;;;;9.09;68.50;94851.53;5112905;28;20188;-47
2023/01/14 02:47:27;;;;;;;22.67;14.80;;;;;;;9.05;68.49;94841.56;5112916;28;20199;-47
2023/01/14 02:49:57;;;;;;;24.63;15.80;;;;;;;9.09;68.65;94852.34;5112428;28;20185;-48
2023/01/14 02:52:24;;;;;;;21.23;14.57;;;;;;;9.11;68.51;94853.06;5112328;28;20710;-47
2023/01/14 02:54:55;;;;;;;23.10;14.97;;;;;;;9.09;68.38;94841.34;5112331;28;20196;-48
2023/01/14 02:57:52;;;;;;;20.80;13.93;;;;;;;9.13;68.40;94853.72;5112330;28;20247;-47
2023/01/14 03:00:27;;;;;;;20.90;14.17;;;;;;;9.14;68.51;94854.53;5112553;28;20193;-48
2023/01/14 03:03:12;;;;;;;21.13;14.10;;;;;;;9.14;68.32;94850.22;5092207;28;20189;-47
2023/01/14 03:05:52;;;;;;;19.37;12.97;;;;;;;9.15;68.25;94845.94;5091789;28;20189;-48
2023/01/14 03:08:26;;;;;;;18.33;12.60;;;;;;;9.15;68.29;94848.47;5091971;28;20226;-47
2023/01/14 03:11:01;;;;;;;20.00;13.67;;;;;;;9.16;68.53;94850.13;5091740;28;20232;-47
2023/01/14 03:13:33;;;;;;;19.80;13.53;;;;;;;9.17;68.15;94865.28;5091899;28;20220;-47
2023/01/14 03:16:05;;;;;;;20.30;12.10;;;;;;;9.15;68.47;94854.38;5091716;28;20197;-47
2023/01/14 03:18:40;;;;;;;17.03;11.83;;;;;;;9.19;68.24;94852.41;5091896;28;20182;-48
2023/01/14 03:21:13;;;;;;;20.47;12.47;;;;;;;9.20;68.13;94847.19;5091606;28;20181;-48
2023/01/14 03:23:47;;;;;;;18.53;11.97;;;;;;;9.22;68.17;94841.94;5091684;28;20282;-46
2023/01/14 03:26:16;;;;;;;15.90;12.13;;;;;;;9.22;67.99;94839.41;5091359;28;20243;-50
2023/01/14 03:28:47;;;;;;;15.53;11.00;;;;;;;9.13;68.31;94823.09;5091744;28;20185;-48
2023/01/14 03:31:28;;;;;;;16.73;12.23;;;;;;;9.24;68.10;94845.19;5091292;28;20804;-47
2023/01/14 03:34:00;;;;;;;16.40;11.70;;;;;;;9.24;67.97;94847.72;5091298;28;20689;-47
2023/01/14 03:36:30;;;;;;;15.17;11.27;;;;;;;9.20;68.25;94829.34;5092277;28;20643;-46
2023/01/14 03:39:00;;;;;;;15.70;10.27;;;;;;;9.24;67.96;94840.06;5091791;28;20646;-48
2023/01/14 03:44:17;;;;;;;14.70;10.70;;;;;;;9.24;67.93;94840.06;5092343;28;20200;-50
2023/01/14 03:46:44;;;;;;;15.20;10.63;;;;;;;9.25;67.91;94849.38;5092169;28;20196;-48
2023/01/14 03:49:12;;;;;;;12.13;10.07;;;;;;;9.20;67.90;94834.44;5091947;28;20189;-48
2023/01/14 03:51:46;;;;;;;13.20;9.30;;;;;;;9.25;67.84;94834.06;5092030;28;20178;-48
2023/01/14 03:54:21;;;;;;;14.17;9.90;;;;;;;9.23;67.82;94836.72;5082358;28;20280;-48
2023/01/14 03:56:58;;;;;;;15.53;10.30;;;;;;;9.23;67.95;94833.34;5091655;28;20274;-47
2023/01/14 03:59:31;;;;;;;13.87;10.70;;;;;;;9.01;67.87;94804.50;5092169;28;20185;-48
2023/01/14 04:01:59;;;;;;;13.33;10.40;;;;;;;9.12;68.01;94813.84;5104572;28;20224;-49
2023/01/14 04:04:28;;;;;;;13.10;9.80;;;;;;;9.20;68.00;94828.53;5110958;28;20200;-46
2023/01/14 04:06:55;;;;;;;13.23;9.83;;;;;;;9.14;67.82;94816.25;5111753;28;20284;-48
2023/01/14 04:09:21;;;;;;;13.13;9.10;;;;;;;9.20;67.83;94834.44;5111096;28;20257;-46
2023/01/14 04:11:48;;;;;;;15.50;10.03;;;;;;;9.19;67.79;94817.47;5111495;28;20205;-48
2023/01/14 04:16:59;;;;;;;12.53;9.77;;;;;;;9.13;68.10;94819.75;5112067;28;20584;-48
2023/01/14 04:19:27;;;;;;;12.00;9.77;;;;;;;9.13;67.98;94822.31;5111020;28;20242;-48
2023/01/14 04:21:54;;;;;;;13.70;10.50;;;;;;;9.11;68.16;94825.00;5111176;28;20681;-47
2023/01/14 04:24:21;;;;;;;12.37;8.93;;;;;;;9.08;68.06;94822.69;5110359;28;20189;-48
2023/01/14 04:26:48;;;;;;;13.10;9.83;;;;;;;9.07;68.23;94823.63;5110930;28;20192;-46
2023/01/14 04:29:14;;;;;;;13.03;10.13;;;;;;;9.07;68.23;94822.78;5110371;28;20200;-49
2023/01/14 04:31:41;;;;;;;14.17;8.83;;;;;;;9.03;68.21;94815.41;5110883;28;20197;-49
2023/01/14 04:34:09;;;;;;;10.80;8.67;;;;;;;9.01;68.23;94811.34;5110407;28;20323;-47
2023/01/14 04:36:38;;;;;;;13.17;10.00;;;;;;;9.02;68.23;94812.97;5110560;28;20193;-45
2023/01/14 04:39:05;;;;;;;12.37;8.97;;;;;;;9.01;68.22;94824.09;5110598;28;20228;-48
2023/01/14 04:44:16;;;;;;;12.97;10.03;;;;;;;8.96;68.22;94816.81;5110219;28;20204;-47
2023/01/14 04:46:43;;;;;;;13.03;9.33;;;;;;;8.96;68.11;94821.13;5110213;28;20196;-47
2023/01/14 04:49:09;;;;;;;11.67;9.13;;;;;;;8.96;68.25;94818.56;5110349;28;20185;-48
2023/01/14 04:51:38;;;;;;;12.90;9.90;;;;;;;8.95;68.25;94820.31;5110562;28;20176;-48
2023/01/14 04:54:04;;;;;;;14.83;10.13;;;;;;;8.94;68.31;94820.44;5109914;28;20253;-47
2023/01/14 04:56:31;;;;;;;12.47;9.53;;;;;;;8.89;68.37;94815.69;5109706;28;20178;-47
2023/01/14 04:59:01;;;;;;;16.30;9.40;;;;;;;8.91;68.25;94823.25;5110089;28;20257;-46
2023/01/14 05:01:28;;;;;;;12.20;9.40;;;;;;;8.91;68.31;94823.25;5109451;28;20270;-47
2023/01/14 05:03:58;;;;;;;12.47;9.30;;;;;;;8.88;68.28;94826.03;5110537;28;20197;-47
2023/01/14 05:06:25;;;;;;;11.27;9.33;;;;;;;8.87;68.50;94822.69;5109659;28;20211;-49
2023/01/14 05:08:53;;;;;;;12.67;9.67;;;;;;;8.86;68.33;94831.25;5110369;28;20229;-46
2023/01/14 05:11:20;;;;;;;11.83;9.00;;;;;;;8.81;68.52;94818.09;5109967;28;20200;-46
2023/01/14 05:13:47;;;;;;;13.43;9.77;;;;;;;8.83;68.41;94823.84;5112871;28;20281;-49
2023/01/14 05:16:16;;;;;;;11.40;9.20;;;;;;;8.84;68.35;94819.56;5114104;28;20181;-46
2023/01/14 05:18:43;;;;;;;12.63;9.90;;;;;;;8.83;68.45;94820.50;5111450;28;20676;-50
2023/01/14 05:21:10;;;;;;;12.27;9.73;;;;;;;8.82;68.43;94829.09;5109774;28;20246;-47
2023/01/14 05:23:38;;;;;;;13.17;9.53;;;;;;;8.80;68.45;94826.63;5110248;28;20283;-46
2023/01/14 05:26:06;;;;;;;15.17;10.03;;;;;;;8.80;68.33;94821.53;5109307;28;20200;-47
2023/01/14 05:28:33;;;;;;;12.83;9.50;;;;;;;8.79;68.43;94832.69;5110119;28;20181;-48
2023/01/14 05:31:00;;;;;;;11.83;9.47;;;;;;;8.77;68.49;94832.00;5109614;28;20185;-47
2023/01/14 05:33:27;;;;;;;13.33;9.60;;;;;;;8.76;68.44;94827.81;5109771;28;20220;-48
2023/01/14 05:35:56;;;;;;;12.43;9.17;;;;;;;8.76;68.54;94832.91;5109889;28;20188;-47
2023/01/14 05:38:23;;;;;;;10.43;8.43;;;;;;;8.74;68.49;94842.44;5109637;28;20185;-48
2023/01/14 05:40:50;;;;;;;13.30;9.10;;;;;;;8.70;68.74;94839.31;5105653;28;20189;-48
2023/01/14 05:46:06;;;;;;;14.53;8.90;;;;;;;8.56;68.42;94815.88;5109361;28;20558;-47
2023/01/14 05:48:33;;;;;;;12.07;8.70;;;;;;;8.75;68.44;94846.59;5109604;28;20209;-46
2023/01/14 05:51:01;;;;;;;13.23;9.03;;;;;;;8.66;68.34;94826.94;5109691;28;20296;-51
2023/01/14 05:53:32;;;;;;;12.37;8.97;;;;;;;8.78;68.38;94846.38;5109183;28;20197;-47
2023/01/14 05:55:59;;;;;;;12.13;9.13;;;;;;;8.80;68.28;94847.03;5109869;28;20220;-48
2023/01/14 05:58:28;;;;;;;13.53;8.80;;;;;;;8.80;68.56;94845.28;5109293;28;20192;-47
2023/01/14 06:06:26;;;;;;;13.27;9.43;;;;;;;8.69;68.12;94827.50;5109288;28;20192;-47
2023/01/14 06:08:55;;;;;;;9.73;7.97;;;;;;;8.89;68.08;94851.41;5109718;28;20313;-48
2023/01/14 06:11:26;;;;;;;11.37;8.60;;;;;;;8.88;68.07;94847.25;5109106;28;20199;-47
2023/01/14 06:13:57;;;;;;;9.57;7.87;;;;;;;8.92;67.82;94840.97;5112662;28;20231;-47
2023/01/14 06:16:26;;;;;;;9.17;7.43;;;;;;;8.94;68.00;94841.66;5112664;28;20689;-47
2023/01/14 06:18:53;;;;;;;8.57;7.67;;;;;;;8.96;68.09;94836.41;5113461;28;20189;-47
2023/01/14 06:21:23;;;;;;;9.50;8.33;;;;;;;8.99;67.89;94842.09;5112781;28;20185;-48
2023/01/14 06:23:50;;;;;;;10.77;8.17;;;;;;;9.01;67.70;94844.50;5112914;28;20193;-48
2023/01/14 06:26:19;;;;;;;10.03;8.90;;;;;;;9.02;67.92;94841.84;5112803;28;20292;-47
2023/01/14 06:28:46;;;;;;;9.33;7.57;;;;;;;9.07;67.42;94845.75;5113677;28;20189;-49
2023/01/14 06:31:15;;;;;;;9.13;7.40;;;;;;;9.13;67.51;94840.97;5112782;28;20188;-47
2023/01/14 06:33:43;;;;;;;13.23;7.43;;;;;;;9.16;67.32;94840.72;5112884;28;20697;-47
2023/01/14 06:36:11;;;;;;;12.30;8.33;;;;;;;9.18;67.34;94836.28;5112835;28;20303;-48
2023/01/14 06:38:39;;;;;;;9.87;7.67;;;;;;;9.25;67.19;94844.25;5112657;28;20185;-47
2023/01/14 06:41:07;;;;;;;7.80;6.67;;;;;;;9.28;67.18;94844.00;5112825;28;20204;-48
2023/01/14 06:43:35;;;;;;;9.37;6.87;;;;;;;9.30;67.05;94848.03;5112532;28;20189;-47
2023/01/14 06:46:02;;;;;;;12.73;7.73;;;;;;;9.33;67.15;94851.28;5112736;28;20190;-48
2023/01/14 06:48:30;;;;;;;8.43;6.93;;;;;;;9.37;67.20;94856.03;5112936;28;20185;-47
2023/01/14 06:50:57;;;;;;;8.17;7.07;;;;;;;9.39;67.12;94858.44;5113028;28;20192;-48
2023/01/14 06:53:24;;;;;;;9.97;7.47;;;;;;;9.37;66.78;94855.19;5112198;28;20197;-47
2023/01/14 06:55:51;;;;;;;8.33;7.20;;;;;;;9.43;66.85;94860.59;5112588;28;20211;-48
2023/01/14 06:58:18;;;;;;;10.27;7.60;;;;;;;9.46;66.92;94857.00;5112201;28;20662;-47
2023/01/14 07:00:44;;;;;;;13.80;7.07;;;;;;;9.39;66.68;94835.47;5112309;28;20262;-47
2023/01/14 07:03:11;;;;;;;9.10;7.10;;;;;;;9.52;66.50;94853.94;5112328;28;20196;-47
2023/01/14 07:05:41;;;;;;;8.80;7.20;;;;;;;9.59;66.47;94861.91;5112048;28;20558;-47
2023/01/14 07:08:07;;;;;;;8.33;7.03;;;;;;;9.64;66.46;94865.69;5111628;28;20181;-47
2023/01/14 07:10:34;;;;;;;7.83;6.53;;;;;;;9.69;66.36;94867.84;5111624;28;20193;-48
2023/01/14 07:13:01;;;;;;;9.57;7.23;;;;;;;9.74;66.32;94873.38;5112256;28;20178;-48
2023/01/14 07:15:28;;;;;;;17.57;7.30;;;;;;;9.72;75.56;94832.66;5111977;28;20188;-46
2023/01/14 07:17:55;;;;;;;13.03;7.43;;;;;;;10.84;100.00;94858.84;5111992;28;20692;-47
2023/01/14 07:20:21;;;;;;;18.60;9.50;;;;;;;11.88;100.00;94864.03;5111842;28;20200;-47
2023/01/14 07:22:50;;;;;;;14.50;9.30;;;;;;;12.83;100.00;94867.94;5111684;28;20185;-47
2023/01/14 07:25:17;;;;;;;14.93;9.13;;;;;;;13.66;100.00;94866.66;5100904;28;20628;-47
2023/01/14 07:27:45;;;;;;;15.00;7.13;;;;;;;14.34;100.00;94870.97;5106438;28;20541;-46
2023/01/14 07:30:13;;;;;;;7.63;6.07;;;;;;;15.00;98.75;94871.91;5109793;27;20185;-47
2023/01/14 07:32:39;;;;;;;10.60;8.50;;;;;;;15.38;96.23;94888.50;5109611;28;20193;-49
2023/01/14 07:35:07;;;;;;;12.30;8.80;;;;;;;15.43;94.04;94883.66;5108869;28;20957;-47
2023/01/14 07:37:33;;;;;;;30.03;9.17;;;;;;;15.31;91.59;94883.16;5108961;28;20669;-49
2023/01/14 07:40:02;;;;;;;13.50;9.33;;;;;;;15.15;88.84;94883.16;5109080;28;20588;-50
2023/01/14 07:42:28;;;;;;;12.87;9.37;;;;;;;14.97;86.23;94888.47;5109184;28;20279;-48
2023/01/14 07:44:55;;;;;;;16.83;11.67;;;;;;;14.81;83.41;94888.47;5109281;28;20189;-49
2023/01/14 07:47:22;;;;;;;13.80;10.80;;;;;;;14.65;81.33;94888.44;5109422;28;20193;-47
2023/01/14 07:49:49;;;;;;;16.33;11.23;;;;;;;14.40;79.47;94865.19;5109469;28;20653;-48
2023/01/14 07:52:16;;;;;;;16.67;11.93;;;;;;;14.40;78.44;94890.91;5109718;28;20242;-47
2023/01/14 07:54:43;;;;;;;14.63;11.57;;;;;;;14.31;77.59;94889.28;5109352;28;20225;-47
2023/01/14 07:57:13;;;;;;;18.03;13.33;;;;;;;14.24;77.04;94890.84;5108586;28;20233;-49
2023/01/14 07:59:41;;;;;;;17.47;13.40;;;;;;;14.15;76.26;94895.16;5109590;28;20200;-47
2023/01/14 08:02:15;;;;;;;16.77;12.57;;;;;;;14.06;75.70;94891.75;5108918;28;20650;-49
2023/01/14 08:04:42;;;;;;;15.57;13.07;;;;;;;13.99;75.13;94895.91;5108722;28;20224;-48
2023/01/14 08:07:09;;;;;;;24.47;13.43;;;;;;;13.95;74.70;94891.22;5109078;28;20193;-46
2023/01/14 08:09:36;;;;;;;19.27;13.33;;;;;;;13.89;74.33;94887.47;5109085;28;20855;-50
2023/01/14 08:12:03;;;;;;;18.70;12.67;;;;;;;13.73;74.05;94883.06;5108669;28;20199;-49
2023/01/14 08:14:32;;;;;;;15.00;12.00;;;;;;;13.80;73.65;94902.06;5109030;28;20231;-48
2023/01/14 08:17:02;;;;;;;17.90;13.10;;;;;;;13.77;73.33;94904.94;5108876;28;20193;-47
2023/01/14 08:19:29;;;;;;;19.47;12.67;;;;;;;13.74;72.66;94900.09;5109240;28;20198;-49
2023/01/14 08:21:56;;;;;;;16.00;12.90;;;;;;;13.60;72.55;94884.41;5108469;28;20189;-48
2023/01/14 08:24:23;;;;;;;16.23;12.90;;;;;;;13.72;71.96;94909.72;5108756;28;20184;-49
2023/01/14 08:26:50;;;;;;;17.20;12.73;;;;;;;13.61;71.40;94892.00;5108206;28;20196;-49
2023/01/14 08:29:17;;;;;;;18.53;12.97;;;;;;;13.76;71.29;94911.03;5106620;28;20204;-51
2023/01/14 08:31:45;;;;;;;20.67;12.57;;;;;;;13.78;70.82;94911.69;5110964;28;20181;-51
2023/01/14 08:34:13;;;;;;;16.07;12.37;;;;;;;13.85;70.46;94909.31;5111359;28;20208;-48
2023/01/14 08:36:41;;;;;;;16.43;12.50;;;;;;;13.89;70.37;94910.63;5109781;28;20704;-50
2023/01/14 08:39:09;;;;;;;18.33;12.87;;;;;;;13.94;70.14;94916.09;5110776;28;20409;-47
2023/01/14 08:41:37;;;;;;;19.13;13.17;;;;;;;13.94;69.70;94910.16;5110939;28;20192;-49
2023/01/14 08:44:03;;;;;;;15.80;13.53;;;;;;;13.97;69.45;94918.38;5110086;28;20202;-48
2023/01/14 08:46:30;;;;;;;19.83;13.13;;;;;;;14.02;69.29;94920.50;5110710;28;20184;-50
2023/01/14 08:48:59;;;;;;;17.07;13.83;;;;;;;14.09;68.80;94930.97;5110460;28;20189;-48
2023/01/14 08:51:26;;;;;;;22.13;13.57;;;;;;;14.13;68.24;94929.72;5110426;28;20177;-49
2023/01/14 08:53:55;;;;;;;17.10;13.23;;;;;;;14.16;68.09;94925.09;5110601;28;20220;-50
2023/01/14 08:56:22;;;;;;;21.03;14.43;;;;;;;14.17;67.79;94916.41;5110429;28;20204;-49
2023/01/14 08:58:49;;;;;;;18.30;14.37;;;;;;;14.21;67.91;94916.91;5110400;28;20698;-48
2023/01/14 09:01:16;;;;;;;17.77;14.03;;;;;;;14.23;67.22;94925.25;5110696;28;20233;-50
2023/01/14 09:03:43;;;;;;;17.93;14.00;;;;;;;14.23;67.04;94915.78;5110253;28;20201;-50
2023/01/14 09:06:13;;;;;;;18.43;12.90;;;;;;;14.24;66.57;94906.28;5110301;28;20245;-48
2023/01/14 09:17:06;;;;;;;15.03;12.57;;;;;;;14.24;65.79;94901.94;5109964;28;20188;-48
2023/01/14 09:19:35;;;;;;;17.70;13.73;;;;;;;14.18;65.90;94902.56;5110576;28;20242;-49
2023/01/14 09:22:03;;;;;;;17.80;12.73;;;;;;;14.14;65.69;94900.47;5110376;28;20191;-48
2023/01/14 09:24:30;;;;;;;16.93;13.00;;;;;;;14.09;65.54;94900.94;5110290;28;20189;-49
2023/01/14 09:26:57;;;;;;;15.53;12.83;;;;;;;14.03;65.44;94886.09;5110154;28;20762;-48
2023/01/14 09:29:24;;;;;;;13.73;11.73;;;;;;;14.02;65.49;94895.56;5109713;28;20189;-47
2023/01/14 09:31:51;;;;;;;15.97;12.10;;;;;;;13.96;65.38;94888.50;5109817;28;20181;-49
2023/01/14 09:34:18;;;;;;;18.57;11.63;;;;;;;13.93;65.03;94893.13;5109680;28;20223;-50
2023/01/14 09:36:45;;;;;;;15.47;12.17;;;;;;;13.87;65.10;94891.97;5110006;28;20193;-50
2023/01/14 09:39:13;;;;;;;16.20;12.03;;;;;;;13.79;64.81;94881.66;5109715;28;20197;-49
2023/01/14 09:41:50;;;;;;;14.63;11.67;;;;;;;13.65;64.86;94867.59;5109766;28;20189;-50
2023/01/14 09:44:18;;;;;;;13.97;11.60;;;;;;;13.73;64.91;94882.25;5110221;28;20275;-50
2023/01/14 09:46:45;;;;;;;13.63;11.60;;;;;;;13.69;64.64;94878.41;5110505;28;20217;-50
2023/01/14 09:49:18;;;;;;;16.53;11.37;;;;;;;13.77;64.54;94881.81;5109988;28;20185;-49
2023/01/14 09:52:15;;;;;;;16.00;11.80;;;;;;;13.85;64.20;94880.22;5110584;28;20196;-49
2023/01/14 09:54:58;;;;;;;15.30;12.33;;;;;;;13.94;63.95;94885.25;5107588;28;20270;-50
2023/01/14 09:57:37;;;;;;;13.63;11.13;;;;;;;14.01;63.72;94875.16;5110610;28;20193;-50
2023/01/14 10:00:34;;;;;;;13.73;10.97;;;;;;;14.12;63.40;94880.06;5110642;28;20634;-49
2023/01/14 10:03:14;;;;;;;12.37;10.63;;;;;;;14.19;63.16;94872.50;5110557;28;20189;-49
2023/01/14 10:05:46;;;;;;;12.20;10.87;;;;;;;14.30;62.90;94883.31;5110044;28;20263;-51
2023/01/14 10:08:15;;;;;;;13.90;11.43;;;;;;;14.31;62.76;94871.28;5110880;28;20185;-49
2023/01/14 10:10:47;;;;;;;14.10;10.83;;;;;;;14.39;62.65;94867.91;5109474;28;20197;-50
2023/01/14 10:13:22;;;;;;;13.00;11.30;;;;;;;14.50;62.17;94873.59;5110418;28;20199;-49
2023/01/14 10:15:54;;;;;;;15.00;11.17;;;;;;;14.60;62.07;94870.91;5110048;28;20293;-50
2023/01/14 10:18:27;;;;;;;14.03;10.57;;;;;;;14.60;61.77;94864.94;5110647;28;20272;-49
2023/01/14 10:20:57;;;;;;;11.73;9.53;;;;;;;14.58;61.54;94851.41;5109963;28;20189;-55
2023/01/14 10:23:28;;;;;;;12.60;9.87;;;;;;;14.76;61.45;94865.75;5110557;28;20546;-49
2023/01/14 10:25:57;;;;;;;13.57;10.87;;;;;;;14.84;61.26;94861.59;5109976;28;20246;-49
2023/01/14 10:28:27;;;;;;;12.27;10.07;;;;;;;14.93;60.77;94864.00;5109900;28;20195;-48
2023/01/14 10:30:57;;;;;;;12.93;10.57;;;;;;;14.99;60.86;94865.97;5110112;28;20582;-50
2023/01/14 10:33:24;;;;;;;11.67;9.53;;;;;;;14.93;61.04;94850.31;5109887;28;20185;-50
2023/01/14 10:35:57;;;;;;;11.80;10.60;;;;;;;15.02;60.87;94862.25;5109693;28;20308;-48
2023/01/14 10:38:26;;;;;;;13.37;10.23;;;;;;;15.03;60.94;94854.38;5110649;28;20192;-48
2023/01/14 10:40:58;;;;;;;11.20;10.03;;;;;;;14.93;60.75;94832.31;5109500;28;20185;-48
2023/01/14 10:43:37;;;;;;;16.37;10.53;;;;;;;15.09;60.53;94852.13;5109784;28;20262;-49
2023/01/14 10:46:05;;;;;;;10.70;9.37;;;;;;;15.04;60.60;94845.66;5109317;28;20189;-49
2023/01/14 10:48:48;;;;;;;14.27;10.40;;;;;;;15.08;60.70;94851.31;5110006;28;20210;-50
2023/01/14 10:51:37;;;;;;;14.20;10.47;;;;;;;15.06;60.67;94836.00;5109889;28;20561;-49
2023/01/14 10:54:15;;;;;;;14.43;11.47;;;;;;;15.05;60.63;94839.53;5045952;28;20195;-49
2023/01/14 10:56:47;;;;;;;12.47;10.60;;;;;;;15.04;60.66;94834.56;5046102;28;20649;-48
2023/01/14 10:59:38;;;;;;;15.00;11.43;;;;;;;14.91;60.47;94816.22;5047713;28;20190;-48
2023/01/14 11:02:05;;;;;;;16.57;11.40;;;;;;;14.96;60.40;94826.84;5049365;28;20330;-48
2023/01/14 11:04:35;;;;;;;13.10;11.53;;;;;;;15.00;60.57;94831.50;5049105;28;20187;-47
2023/01/14 11:07:09;;;;;;;16.13;12.47;;;;;;;14.99;60.38;94827.31;5049994;28;20245;-50
2023/01/14 11:09:37;;;;;;;15.13;12.17;;;;;;;14.94;60.45;94829.59;5049111;28;20281;-48
2023/01/14 11:12:05;;;;;;;15.27;12.50;;;;;;;14.90;60.27;94827.50;5049246;28;20198;-48
2023/01/14 11:14:37;;;;;;;14.30;11.73;;;;;;;14.82;60.37;94825.72;5048676;28;20849;-48
2023/01/14 11:17:22;;;;;;;16.00;12.07;;;;;;;14.75;60.41;94827.31;5049246;28;20198;-48
2023/01/14 11:19:49;;;;;;;12.53;11.13;;;;;;;14.68;60.40;94823.75;5049065;28;20187;-48
2023/01/14 11:22:17;;;;;;;14.27;11.83;;;;;;;14.62;60.44;94822.63;5049248;28;20239;-48
2023/01/14 11:24:46;;;;;;;14.83;11.77;;;;;;;14.57;60.44;94824.88;5048678;28;20195;-49
2023/01/14 11:27:18;;;;;;;19.70;12.43;;;;;;;14.49;60.59;94822.28;5049089;28;20198;-48
2023/01/14 11:29:47;;;;;;;14.70;11.60;;;;;;;14.45;60.54;94828.69;5048824;28;20274;-49
2023/01/14 11:32:19;;;;;;;16.63;11.90;;;;;;;14.38;60.29;94827.69;5110912;28;20688;-48
2023/01/14 11:34:49;;;;;;;14.87;12.27;;;;;;;14.18;60.47;94817.69;5111648;28;20239;-48
2023/01/14 11:37:19;;;;;;;13.50;11.97;;;;;;;14.06;60.56;94804.31;5112274;28;20344;-48
2023/01/14 11:39:50;;;;;;;15.43;12.53;;;;;;;14.20;60.67;94838.09;5111435;28;20197;-47
2023/01/14 11:42:32;;;;;;;15.90;13.00;;;;;;;14.12;60.76;94820.06;5112046;28;20228;-48
2023/01/14 11:45:01;;;;;;;15.57;12.67;;;;;;;14.13;60.74;94824.28;5111409;28;20193;-47
2023/01/14 11:47:29;;;;;;;14.37;11.87;;;;;;;14.09;60.60;94823.78;5111578;28;20662;-50
2023/01/14 11:50:28;;;;;;;14.30;10.97;;;;;;;14.09;60.73;94840.97;5111164;28;20242;-49
2023/01/14 11:52:58;;;;;;;15.73;12.50;;;;;;;14.06;60.82;94835.16;5048085;28;20589;-49
2023/01/14 11:55:28;;;;;;;12.97;11.40;;;;;;;14.03;60.67;94832.09;5049266;28;20238;-50
2023/01/14 11:58:02;;;;;;;13.47;10.60;;;;;;;14.05;60.60;94835.34;5048868;28;20194;-50
2023/01/14 12:00:30;;;;;;;12.30;10.10;;;;;;;14.04;60.73;94831.97;5048920;28;20686;-48
2023/01/14 12:03:02;;;;;;;11.80;9.70;;;;;;;14.03;60.59;94832.94;5048308;28;20248;-50
2023/01/14 12:05:29;;;;;;;13.07;10.47;;;;;;;13.98;60.60;94822.28;5048988;28;20233;-47